createdAt,value
2017-06-20T00:01:05.434Z,75.40
2017-06-20T00:03:33.856Z,76.40
2017-06-20T00:06:02.270Z,75.70
2017-06-20T00:08:30.711Z,75.30
2017-06-20T00:10:59.143Z,74.70
2017-06-20T00:13:27.600Z,74.70
2017-06-20T00:15:56.787Z,75.90
2017-06-20T00:18:25.218Z,75.80
2017-06-20T00:20:53.670Z,75.20
2017-06-20T00:23:22.859Z,77.10
2017-06-20T00:25:52.174Z,77.80
2017-06-20T00:28:21.362Z,77.00
2017-06-20T00:30:50.563Z,76.80
2017-06-20T00:33:19.772Z,77.30
2017-06-20T00:35:48.204Z,77.10
2017-06-20T00:38:16.657Z,77.80
2017-06-20T00:40:45.066Z,77.00
2017-06-20T00:43:13.498Z,77.80
2017-06-20T00:45:41.931Z,77.60
2017-06-20T00:48:10.374Z,77.60
2017-06-20T00:50:38.804Z,77.80
2017-06-20T00:53:07.255Z,78.50
2017-06-20T00:55:35.697Z,78.90
2017-06-20T00:58:04.881Z,79.80
2017-06-20T01:00:33.310Z,79.80
2017-06-20T01:03:01.731Z,79.80
2017-06-20T01:05:30.263Z,80.50
2017-06-20T01:07:58.687Z,80.10
2017-06-20T01:10:27.124Z,80.40
2017-06-20T01:12:55.592Z,80.50
2017-06-20T01:15:24.791Z,79.90
2017-06-20T01:17:53.998Z,80.30
2017-06-20T01:20:22.423Z,80.20
2017-06-20T01:22:50.957Z,80.80
2017-06-20T01:25:19.387Z,80.80
2017-06-20T01:27:47.834Z,80.60
2017-06-20T01:30:16.254Z,81.20
2017-06-20T01:32:44.696Z,80.50
2017-06-20T01:35:13.124Z,81.20
2017-06-20T01:37:41.579Z,81.10
2017-06-20T01:40:10.007Z,81.20
2017-06-20T01:42:39.118Z,81.30
2017-06-20T01:45:08.331Z,83.00
2017-06-20T01:47:36.867Z,82.90
2017-06-20T01:50:05.471Z,84.30
2017-06-20T01:52:34.687Z,83.20
2017-06-20T01:55:04.127Z,84.10
2017-06-20T01:57:32.679Z,83.80
2017-06-20T02:00:01.103Z,82.50
2017-06-20T02:02:29.559Z,83.10
2017-06-20T02:04:58.086Z,82.70
2017-06-20T02:07:26.580Z,83.00
2017-06-20T02:09:54.643Z,82.90
2017-06-20T02:12:23.065Z,82.60
2017-06-20T02:14:51.499Z,82.60
2017-06-20T02:17:19.930Z,82.80
2017-06-20T02:19:48.015Z,83.40
2017-06-20T02:22:16.486Z,82.90
2017-06-20T02:24:45.764Z,83.60
2017-06-20T02:27:14.947Z,84.10
2017-06-20T02:29:43.488Z,83.20
2017-06-20T02:32:11.902Z,83.00
2017-06-20T02:34:40.349Z,83.20
2017-06-20T02:37:08.786Z,83.10
2017-06-20T02:39:37.218Z,83.30
2017-06-20T02:42:05.679Z,84.00
2017-06-20T02:44:34.099Z,84.30
2017-06-20T02:47:02.545Z,84.80
2017-06-20T02:49:32.443Z,83.50
2017-06-20T02:52:01.825Z,83.70
2017-06-20T02:54:30.384Z,83.60
2017-06-20T02:56:58.814Z,84.00
2017-06-20T02:59:28.027Z,83.90
2017-06-20T03:01:56.469Z,83.80
2017-06-20T03:04:24.903Z,85.40
2017-06-20T03:06:53.350Z,84.80
2017-06-20T03:09:22.550Z,84.70
2017-06-20T03:11:51.769Z,83.60
2017-06-20T03:14:20.190Z,83.70
2017-06-20T03:16:48.606Z,84.40
2017-06-20T03:19:17.914Z,85.50
2017-06-20T03:21:47.138Z,84.90
2017-06-20T03:24:15.572Z,84.90
2017-06-20T03:26:43.983Z,84.10
2017-06-20T03:29:13.194Z,85.60
2017-06-20T03:31:41.615Z,85.40
2017-06-20T03:34:10.038Z,85.60
2017-06-20T03:36:39.229Z,86.60
2017-06-20T03:39:08.423Z,88.20
2017-06-20T03:41:36.867Z,87.40
2017-06-20T03:44:05.290Z,88.00
2017-06-20T03:46:34.514Z,88.00
2017-06-20T03:49:02.959Z,87.10
2017-06-20T03:51:31.387Z,88.20
2017-06-20T03:53:59.839Z,88.40
2017-06-20T03:56:29.027Z,89.00
2017-06-20T03:58:57.459Z,88.30
2017-06-20T04:01:26.149Z,88.10
2017-06-20T04:03:54.684Z,87.60
2017-06-20T04:06:23.907Z,89.30
2017-06-20T04:08:53.087Z,89.10
2017-06-20T04:11:22.297Z,88.60
2017-06-20T04:13:51.478Z,88.50
2017-06-20T04:16:19.926Z,88.50
2017-06-20T04:18:48.359Z,88.00
2017-06-20T04:21:23.067Z,90.10
2017-06-20T04:23:51.514Z,90.10
2017-06-20T04:26:19.983Z,90.30
2017-06-20T04:28:48.423Z,89.80
2017-06-20T04:31:17.818Z,88.10
2017-06-20T04:33:46.252Z,87.90
2017-06-20T04:36:14.683Z,87.50
2017-06-20T04:38:43.095Z,87.10
2017-06-20T04:41:11.707Z,87.60
2017-06-20T04:43:40.120Z,87.20
2017-06-20T04:46:08.544Z,87.50
2017-06-20T04:48:37.014Z,86.50
2017-06-20T04:51:06.191Z,85.00
2017-06-20T04:53:34.620Z,85.10
2017-06-20T04:56:03.062Z,85.60
2017-06-20T04:58:31.663Z,84.10
2017-06-20T05:01:00.143Z,82.50
2017-06-20T05:03:28.572Z,81.20
2017-06-20T05:05:57.008Z,80.50
2017-06-20T05:08:25.426Z,80.20
2017-06-20T05:10:53.847Z,79.40
2017-06-20T05:13:23.164Z,79.80
2017-06-20T05:15:52.366Z,79.60
2017-06-20T05:18:20.802Z,80.00
2017-06-20T05:20:49.312Z,80.70
2017-06-20T05:23:17.772Z,81.60
2017-06-20T05:25:46.218Z,82.70
2017-06-20T05:28:14.679Z,80.90
2017-06-20T05:30:43.164Z,82.20
2017-06-20T05:33:11.581Z,78.70
2017-06-20T05:35:40.027Z,77.50
2017-06-20T05:38:08.463Z,77.60
2017-06-20T05:40:36.914Z,76.60
2017-06-20T05:43:05.155Z,77.60
2017-06-20T05:45:34.407Z,77.70
2017-06-20T05:48:02.852Z,77.70
2017-06-20T05:50:31.266Z,76.70
2017-06-20T05:53:00.638Z,75.10
2017-06-20T05:55:29.079Z,74.20
2017-06-20T05:57:57.523Z,73.20
2017-06-20T06:00:25.758Z,72.20
2017-06-20T06:02:55.000Z,72.00
2017-06-20T06:05:23.462Z,71.90
2017-06-20T06:07:51.931Z,71.90
2017-06-20T06:10:20.371Z,71.70
2017-06-20T06:12:48.819Z,69.70
2017-06-20T06:15:17.342Z,68.50
2017-06-20T06:17:45.855Z,68.00
2017-06-20T06:20:14.303Z,68.20
2017-06-20T06:22:43.340Z,67.40
2017-06-20T06:25:11.844Z,68.40
2017-06-20T06:27:40.267Z,67.10
2017-06-20T06:30:08.723Z,66.70
2017-06-20T06:32:37.150Z,64.60
2017-06-20T06:35:05.610Z,65.20
2017-06-20T06:37:33.890Z,65.70
2017-06-20T06:40:02.339Z,65.50
2017-06-20T06:42:30.774Z,64.30
2017-06-20T06:44:59.218Z,63.60
2017-06-20T06:47:27.687Z,63.60
2017-06-20T06:49:56.107Z,63.10
2017-06-20T06:52:24.549Z,62.00
2017-06-20T06:54:52.963Z,62.40
2017-06-20T06:57:21.405Z,61.90
2017-06-20T06:59:49.923Z,62.60
2017-06-20T07:02:18.394Z,62.60
2017-06-20T07:04:46.832Z,62.50
2017-06-20T07:07:15.270Z,62.70
2017-06-20T07:09:43.713Z,62.20
2017-06-20T07:12:12.184Z,62.80
2017-06-20T07:14:40.624Z,61.70
2017-06-20T07:17:09.074Z,61.90
2017-06-20T07:19:38.200Z,62.10
2017-06-20T07:22:06.647Z,62.30
2017-06-20T07:24:35.076Z,61.90
2017-06-20T07:27:03.530Z,61.60
2017-06-20T07:29:31.991Z,61.00
2017-06-20T07:32:00.815Z,60.60
2017-06-20T07:34:30.027Z,60.50
2017-06-20T07:36:58.868Z,59.90
2017-06-20T07:39:28.063Z,59.60
2017-06-20T07:41:56.883Z,59.30
2017-06-20T07:44:26.195Z,59.00
2017-06-20T07:46:55.291Z,59.30
2017-06-20T07:49:26.137Z,58.10
2017-06-20T07:51:54.957Z,58.30
2017-06-20T07:54:23.386Z,57.10
2017-06-20T07:56:51.811Z,57.00
2017-06-20T07:59:21.010Z,57.50
2017-06-20T08:01:49.457Z,57.30
2017-06-20T08:04:18.078Z,59.00
2017-06-20T08:06:47.192Z,57.70
2017-06-20T08:09:15.627Z,57.30
2017-06-20T08:11:44.068Z,56.20
2017-06-20T08:14:12.490Z,56.70
2017-06-20T08:16:41.006Z,55.10
2017-06-20T08:19:09.435Z,55.10
2017-06-20T08:21:43.459Z,55.70
2017-06-20T08:24:11.878Z,53.80
2017-06-20T08:26:40.332Z,52.70
2017-06-20T08:29:08.847Z,52.20
2017-06-20T08:31:37.267Z,51.30
2017-06-20T08:34:05.723Z,51.70
2017-06-20T08:36:34.199Z,52.10
2017-06-20T08:39:02.432Z,51.30
2017-06-20T08:41:30.878Z,50.70
2017-06-20T08:43:59.299Z,51.30
2017-06-20T08:46:27.736Z,51.00
2017-06-20T08:48:56.292Z,50.90
2017-06-20T08:51:24.776Z,51.40
2017-06-20T08:53:53.958Z,52.00
2017-06-20T08:56:23.147Z,51.30
2017-06-20T08:58:51.586Z,49.30
2017-06-20T09:01:20.042Z,50.10
2017-06-20T09:03:48.519Z,49.60
2017-06-20T09:06:17.009Z,49.40
2017-06-20T09:08:45.427Z,50.20
2017-06-20T09:11:13.859Z,49.40
2017-06-20T09:13:43.063Z,49.10
2017-06-20T09:16:11.518Z,48.50
2017-06-20T09:18:40.038Z,49.30
2017-06-20T09:21:08.479Z,49.40
2017-06-20T09:23:36.912Z,49.60
2017-06-20T09:26:05.401Z,48.60
2017-06-20T09:28:33.830Z,47.60
2017-06-20T09:31:02.262Z,48.60
2017-06-20T09:33:30.711Z,49.10
2017-06-20T09:36:00.048Z,47.30
2017-06-20T09:38:28.503Z,48.20
2017-06-20T09:40:57.344Z,48.80
2017-06-20T09:43:26.212Z,46.40
2017-06-20T09:45:55.395Z,46.60
2017-06-20T09:48:24.592Z,47.50
2017-06-20T09:50:53.795Z,46.50
2017-06-20T09:53:22.452Z,46.30
2017-06-20T09:55:50.875Z,46.80
2017-06-20T09:58:19.710Z,48.10
2017-06-20T10:00:48.528Z,47.40
2017-06-20T10:03:17.365Z,45.70
2017-06-20T10:05:45.815Z,46.20
2017-06-20T10:08:14.651Z,45.90
2017-06-20T10:10:43.479Z,46.30
2017-06-20T10:13:12.681Z,45.30
2017-06-20T10:15:41.522Z,45.00
2017-06-20T10:18:10.724Z,45.00
2017-06-20T10:20:39.589Z,44.60
2017-06-20T10:23:08.431Z,44.50
2017-06-20T10:25:37.620Z,43.80
2017-06-20T10:28:06.058Z,44.70
2017-06-20T10:30:34.482Z,43.70
2017-06-20T10:33:03.695Z,44.00
2017-06-20T10:35:32.522Z,43.50
2017-06-20T10:38:01.732Z,42.70
2017-06-20T10:40:30.561Z,45.50
2017-06-20T10:42:59.759Z,44.10
2017-06-20T10:45:28.599Z,44.00
2017-06-20T10:47:57.787Z,42.90
2017-06-20T10:50:26.211Z,42.80
2017-06-20T10:52:54.663Z,43.70
2017-06-20T10:55:23.096Z,44.00
2017-06-20T10:57:51.914Z,43.20
2017-06-20T11:00:20.355Z,43.60
2017-06-20T11:02:49.182Z,42.30
2017-06-20T11:05:17.607Z,41.90
2017-06-20T11:07:46.055Z,42.30
2017-06-20T11:10:14.900Z,41.10
2017-06-20T11:12:43.339Z,41.70
2017-06-20T11:15:12.196Z,41.90
2017-06-20T11:17:41.030Z,42.20
2017-06-20T11:20:10.219Z,40.50
2017-06-20T11:22:39.060Z,40.40
2017-06-20T11:25:08.240Z,41.30
2017-06-20T11:27:37.079Z,41.80
2017-06-20T11:30:06.332Z,41.10
2017-06-20T11:32:35.160Z,40.90
2017-06-20T11:35:03.993Z,40.00
2017-06-20T11:37:32.485Z,40.80
2017-06-20T11:40:00.931Z,40.80
2017-06-20T11:42:29.371Z,40.40
2017-06-20T11:44:57.796Z,40.70
2017-06-20T11:47:26.644Z,40.00
2017-06-20T11:49:55.837Z,39.20
2017-06-20T11:52:24.663Z,38.00
2017-06-20T11:54:53.874Z,39.40
2017-06-20T11:57:23.772Z,38.80
2017-06-20T11:59:52.612Z,39.90
2017-06-20T12:02:21.801Z,38.70
2017-06-20T12:04:50.632Z,39.30
2017-06-20T12:07:19.823Z,39.30
2017-06-20T12:09:49.054Z,39.40
2017-06-20T12:12:18.303Z,40.60
2017-06-20T12:14:47.139Z,40.50
2017-06-20T12:17:16.335Z,40.30
2017-06-20T12:19:45.261Z,39.50
2017-06-20T12:22:14.101Z,38.90
2017-06-20T12:24:43.295Z,39.10
2017-06-20T12:27:12.132Z,39.00
2017-06-20T12:29:40.959Z,38.20
2017-06-20T12:32:10.166Z,37.50
2017-06-20T12:34:39.366Z,37.40
2017-06-20T12:37:08.256Z,37.70
2017-06-20T12:39:37.083Z,37.80
2017-06-20T12:42:06.288Z,38.00
2017-06-20T12:44:35.144Z,38.50
2017-06-20T12:47:04.357Z,42.40
2017-06-20T12:49:33.175Z,38.10
2017-06-20T12:52:02.007Z,40.60
2017-06-20T12:54:31.196Z,38.30
2017-06-20T12:57:00.037Z,37.90
2017-06-20T12:59:28.645Z,38.50
2017-06-20T13:01:57.463Z,38.60
2017-06-20T13:04:26.317Z,39.00
2017-06-20T13:06:55.616Z,39.70
2017-06-20T13:09:24.563Z,39.60
2017-06-20T13:11:53.438Z,40.90
2017-06-20T13:14:22.258Z,40.50
2017-06-20T13:16:51.467Z,40.10
2017-06-20T13:19:20.395Z,38.50
2017-06-20T13:21:49.595Z,39.40
2017-06-20T13:24:18.412Z,39.00
2017-06-20T13:26:47.633Z,38.30
2017-06-20T13:29:16.467Z,38.70
2017-06-20T13:31:45.672Z,38.80
2017-06-20T13:34:14.501Z,36.60
2017-06-20T13:36:43.707Z,36.60
2017-06-20T13:39:12.551Z,38.60
2017-06-20T13:41:41.774Z,38.70
2017-06-20T13:44:10.972Z,35.80
2017-06-20T13:46:39.783Z,36.40
2017-06-20T13:49:08.996Z,36.30
2017-06-20T13:51:37.806Z,37.90
2017-06-20T13:54:06.655Z,39.10
2017-06-20T13:56:35.847Z,38.90
2017-06-20T13:59:04.695Z,38.30
2017-06-20T14:01:33.937Z,37.60
2017-06-20T14:04:02.730Z,36.60
2017-06-20T14:06:31.943Z,35.30
2017-06-20T14:09:00.763Z,36.50
2017-06-20T14:11:29.193Z,36.00
2017-06-20T14:13:58.452Z,33.20
2017-06-20T14:16:27.296Z,33.50
2017-06-20T14:18:57.167Z,34.40
2017-06-20T14:21:26.371Z,36.10
2017-06-20T14:23:55.211Z,35.10
2017-06-20T14:26:24.028Z,34.90
2017-06-20T14:28:53.247Z,35.80
2017-06-20T14:31:22.111Z,36.60
2017-06-20T14:33:52.292Z,35.40
2017-06-20T14:36:22.391Z,34.20
2017-06-20T14:38:51.240Z,34.20
2017-06-20T14:41:20.503Z,33.80
2017-06-20T14:43:49.395Z,34.40
2017-06-20T14:46:18.266Z,34.90
2017-06-20T14:48:46.698Z,35.10
2017-06-20T14:51:15.919Z,34.80
2017-06-20T14:53:45.123Z,34.90
2017-06-20T14:56:13.558Z,33.90
2017-06-20T14:58:41.995Z,34.00
2017-06-20T15:01:10.251Z,33.40
2017-06-20T15:03:38.675Z,31.70
2017-06-20T15:06:07.533Z,32.50
2017-06-20T15:08:36.726Z,32.60
2017-06-20T15:11:05.936Z,32.20
2017-06-20T15:13:34.868Z,32.20
2017-06-20T15:16:03.680Z,33.30
2017-06-20T15:18:32.894Z,32.90
2017-06-20T15:21:01.719Z,33.20
2017-06-20T15:23:30.986Z,33.60
2017-06-20T15:26:00.195Z,33.40
2017-06-20T15:28:29.376Z,33.20
2017-06-20T15:30:58.207Z,34.70
2017-06-20T15:33:27.033Z,36.20
2017-06-20T15:35:56.247Z,35.40
2017-06-20T15:38:25.104Z,35.90
2017-06-20T15:40:53.923Z,36.40
2017-06-20T15:43:23.122Z,34.80
2017-06-20T15:45:52.324Z,35.10
2017-06-20T15:48:21.163Z,36.10
2017-06-20T15:50:49.979Z,36.50
2017-06-20T15:53:19.160Z,36.20
2017-06-20T15:55:48.363Z,35.60
2017-06-20T15:58:17.196Z,35.60
2017-06-20T16:00:46.412Z,35.40
2017-06-20T16:03:15.603Z,35.50
2017-06-20T16:05:44.805Z,34.20
2017-06-20T16:08:13.652Z,34.40
2017-06-20T16:10:42.507Z,33.40
2017-06-20T16:13:11.711Z,33.10
2017-06-20T16:15:40.572Z,34.00
2017-06-20T16:18:09.397Z,35.00
2017-06-20T16:20:38.670Z,35.20
2017-06-20T16:23:07.504Z,35.40
2017-06-20T16:25:36.551Z,35.60
2017-06-20T16:28:05.742Z,35.60
2017-06-20T16:30:34.593Z,35.40
2017-06-20T16:33:03.770Z,36.10
2017-06-20T16:35:32.609Z,35.50
2017-06-20T16:38:01.828Z,36.20
2017-06-20T16:40:31.040Z,36.50
2017-06-20T16:42:59.877Z,35.20
2017-06-20T16:45:29.064Z,36.00
2017-06-20T16:47:57.908Z,35.90
2017-06-20T16:50:26.731Z,35.80
2017-06-20T16:52:55.948Z,35.50
2017-06-20T16:55:24.802Z,35.40
2017-06-20T16:57:54.015Z,35.10
2017-06-20T17:00:22.879Z,34.60
2017-06-20T17:02:52.110Z,35.40
2017-06-20T17:05:21.076Z,35.70
2017-06-20T17:07:49.891Z,35.80
2017-06-20T17:10:18.747Z,34.30
2017-06-20T17:12:47.948Z,33.10
2017-06-20T17:15:16.813Z,33.10
2017-06-20T17:17:46.044Z,33.60
2017-06-20T17:20:14.864Z,33.60
2017-06-20T17:22:44.062Z,32.90
2017-06-20T17:25:12.935Z,32.30
2017-06-20T17:27:41.475Z,32.00
2017-06-20T17:30:10.288Z,31.90
2017-06-20T17:32:39.131Z,32.10
2017-06-20T17:35:07.963Z,32.40
2017-06-20T17:37:37.055Z,33.00
2017-06-20T17:40:06.264Z,32.80
2017-06-20T17:42:35.502Z,33.50
2017-06-20T17:45:04.351Z,32.90
2017-06-20T17:47:33.539Z,32.80
2017-06-20T17:50:02.353Z,33.60
2017-06-20T17:52:31.563Z,34.50
2017-06-20T17:55:00.427Z,34.70
2017-06-20T17:57:28.882Z,34.60
2017-06-20T17:59:57.732Z,35.40
2017-06-20T18:02:27.559Z,35.50
2017-06-20T18:04:56.761Z,36.50
2017-06-20T18:07:25.821Z,37.50
2017-06-20T18:09:55.036Z,37.80
2017-06-20T18:12:23.902Z,38.30
2017-06-20T18:14:53.115Z,38.70
2017-06-20T18:17:21.983Z,39.40
2017-06-20T18:19:50.799Z,39.80
2017-06-20T18:22:19.992Z,39.90
2017-06-20T18:24:49.215Z,40.10
2017-06-20T18:27:18.404Z,40.60
2017-06-20T18:29:47.235Z,40.80
2017-06-20T18:32:16.435Z,41.00
2017-06-20T18:34:45.310Z,41.00
2017-06-20T18:37:14.171Z,41.50
2017-06-20T18:39:43.383Z,41.70
2017-06-20T18:42:12.273Z,41.80
2017-06-20T18:44:41.484Z,42.10
2017-06-20T18:47:10.673Z,42.40
2017-06-20T18:49:39.624Z,42.60
2017-06-20T18:52:08.482Z,43.10
2017-06-20T18:54:36.936Z,43.50
2017-06-20T18:57:06.246Z,43.80
2017-06-20T18:59:34.729Z,44.00
2017-06-20T19:02:03.913Z,44.40
2017-06-20T19:04:33.059Z,44.80
2017-06-20T19:07:01.916Z,45.80
2017-06-20T19:09:30.769Z,46.00
2017-06-20T19:11:59.700Z,46.50
2017-06-20T19:14:28.555Z,47.80
2017-06-20T19:16:57.788Z,48.20
2017-06-20T19:19:26.661Z,48.60
2017-06-20T19:21:55.643Z,49.70
2017-06-20T19:24:24.478Z,50.20
2017-06-20T19:26:52.981Z,50.80
2017-06-20T19:29:21.403Z,51.30
2017-06-20T19:31:50.226Z,52.00
2017-06-20T19:34:19.419Z,52.30
2017-06-20T19:36:48.611Z,53.00
2017-06-20T19:39:17.499Z,53.30
2017-06-20T19:41:46.687Z,53.90
2017-06-20T19:44:15.559Z,54.30
2017-06-20T19:46:44.374Z,54.70
2017-06-20T19:49:13.567Z,55.40
2017-06-20T19:51:42.778Z,55.90
2017-06-20T19:54:12.020Z,56.60
2017-06-20T19:56:40.859Z,57.10
2017-06-20T19:59:10.079Z,57.40
2017-06-20T20:01:38.925Z,58.00
2017-06-20T20:04:07.761Z,57.70
2017-06-20T20:06:36.984Z,58.10
2017-06-20T20:09:05.143Z,58.10
2017-06-20T20:11:33.970Z,58.60
2017-06-20T20:14:02.823Z,58.70
2017-06-20T20:16:31.675Z,58.90
2017-06-20T20:19:00.512Z,58.90
2017-06-20T20:21:29.339Z,59.20
2017-06-20T20:23:58.670Z,59.50
2017-06-20T20:26:27.523Z,59.60
2017-06-20T20:28:56.356Z,61.30
2017-06-20T20:31:25.580Z,62.90
2017-06-20T20:33:54.408Z,64.10
2017-06-20T20:36:23.242Z,65.00
2017-06-20T20:38:52.451Z,65.20
2017-06-20T20:41:21.304Z,65.20
2017-06-20T20:43:50.129Z,65.60
2017-06-20T20:46:19.401Z,65.50
2017-06-20T20:48:47.915Z,65.50
2017-06-20T20:51:17.175Z,64.80
2017-06-20T20:53:46.032Z,64.50
2017-06-20T20:56:14.871Z,65.20
2017-06-20T20:58:44.068Z,65.50
2017-06-20T21:01:12.909Z,65.30
2017-06-20T21:03:41.748Z,65.20
2017-06-20T21:06:11.004Z,65.60
2017-06-20T21:08:39.855Z,67.80
2017-06-20T21:11:08.678Z,68.70
2017-06-20T21:13:37.576Z,69.10
2017-06-20T21:16:06.767Z,69.20
2017-06-20T21:18:35.627Z,69.80
2017-06-20T21:21:04.448Z,69.30
2017-06-20T21:23:33.652Z,69.00
2017-06-20T21:26:02.506Z,68.90
2017-06-20T21:28:31.324Z,68.60
2017-06-20T21:31:00.531Z,68.40
2017-06-20T21:33:29.363Z,68.60
2017-06-20T21:35:58.215Z,68.30
2017-06-20T21:38:27.408Z,69.20
2017-06-20T21:40:56.657Z,70.70
2017-06-20T21:43:25.187Z,70.10
2017-06-20T21:45:54.402Z,72.00
2017-06-20T21:48:23.613Z,72.30
2017-06-20T21:50:52.043Z,72.10
2017-06-20T21:53:20.490Z,71.90
2017-06-20T21:55:48.928Z,72.00
2017-06-20T21:58:17.363Z,72.10
2017-06-20T22:00:45.813Z,72.50
2017-06-20T22:03:15.123Z,73.10
2017-06-20T22:05:43.582Z,73.00
2017-06-20T22:08:12.067Z,73.20
2017-06-20T22:10:41.274Z,74.20
2017-06-20T22:13:10.579Z,73.80
2017-06-20T22:15:39.026Z,73.70
2017-06-20T22:18:07.465Z,73.90
2017-06-20T22:20:35.928Z,72.80
2017-06-20T22:23:04.376Z,73.50
2017-06-20T22:25:32.807Z,74.00
2017-06-20T22:28:01.218Z,74.90
2017-06-20T22:30:29.655Z,74.70
2017-06-20T22:32:58.104Z,74.60
2017-06-20T22:35:26.550Z,75.30
2017-06-20T22:37:54.995Z,76.00
2017-06-20T22:40:23.437Z,76.10
2017-06-20T22:42:51.863Z,77.00
2017-06-20T22:45:20.328Z,77.80
2017-06-20T22:47:49.539Z,79.00
2017-06-20T22:50:18.743Z,79.50
2017-06-20T22:52:47.166Z,79.20
2017-06-20T22:55:15.623Z,79.10
2017-06-20T22:57:44.051Z,79.30
2017-06-20T23:00:12.502Z,79.90
2017-06-20T23:02:40.943Z,79.50
2017-06-20T23:05:09.523Z,80.10
2017-06-20T23:07:38.730Z,83.30
2017-06-20T23:10:07.190Z,82.20
2017-06-20T23:12:35.690Z,82.50
2017-06-20T23:15:04.534Z,83.00
2017-06-20T23:17:32.978Z,83.60
2017-06-20T23:20:01.432Z,83.60
2017-06-20T23:22:29.931Z,85.10
2017-06-20T23:24:58.391Z,85.60
2017-06-20T23:27:27.027Z,86.20
2017-06-20T23:29:55.487Z,85.70
2017-06-20T23:32:24.787Z,85.50
2017-06-20T23:34:53.243Z,85.50
2017-06-20T23:37:21.696Z,86.00
2017-06-20T23:39:50.149Z,86.80
2017-06-20T23:42:18.595Z,87.80
2017-06-20T23:44:47.785Z,89.50
2017-06-20T23:47:16.226Z,88.80
2017-06-20T23:49:44.670Z,89.40
2017-06-20T23:52:13.099Z,89.80
2017-06-20T23:54:41.556Z,90.10
2017-06-20T23:57:09.989Z,90.00
2017-06-20T23:59:38.442Z,88.20
